Saturday, November 01, 2014
09:52 UTC
  |  Log In   |  Register Free
Airport Search:

Norwood Memorial Airport
(KOWD)

FAA data valid effective September 18, 2014 - November 13, 2014 (unless otherwise noted).

 
 
 
 
 
 
 
 
 
 
 
 
 
 

Current Aviation Weather for Norwood Memorial Airport (KOWD)

The most recent METAR observation for KOWD was updated at: 0918
METAR Summary (Translated METAR)
KOWD
010853Z AUTO 36010KT 10SM OVC090 07/02 A2989 RMK AO2 SLP120 T00670017 58008
KBOS
010854Z 35014KT 10SM OVC090 07/01 A2990 RMK AO2 SLP124 T00670011 58009
(12.7 nm NE from KOWD)
KBED
010856Z AUTO 35009KT 10SM BKN095 05/00 A2991 RMK AO2 SLP143 T00500000 58008 TSNO
(17.6 nm NW from KOWD)
TAF Summary (Translated TAF)
KBOS
(12.7 nm NE from KOWD)
010541Z 0106/0212 03012KT P6SM OVC080 FM011000 03014G23KT P6SM SCT015 OVC035 FM011400 02017G28KT P6SM -RA OVC015 FM011800 03018G32KT 3SM -RA OVC008 FM012100 01022G37KT 3SM -RA OVC015 FM020400 36022G42KT P6SM OVC015 FM020600 36022G42KT P6SM OVC025
KBED
(17.6 nm NW from KOWD)
010541Z 0106/0206 03010KT P6SM SCT050 OVC100 FM011100 02010G22KT P6SM OVC025 FM011300 01011G24KT P6SM OVC015 FM011500 01014G25KT P6SM -RA OVC015 FM011800 02012G30KT 3SM -RA OVC008 FM012300 01014G39KT 3SM -RA OVC015 FM020000 01014G41KT P6SM -RA OVC015 FM020300 35015G39KT P6SM OVC025
  Airport Weather Conditions for KOWD

 Current Weather at OWD
44° F
Overcast
North winds at 11.5 mph
OWD NOAA Radar

Pressure: 29.89 in
Humidity: 71%
Wind: North at 11.5 MPH (10 KT)
Dew Point: 35.1°F
Visibility: 10.00 mi


Airport Weather Forecast for KOWD

Translated METAR and TAF for KOWD
Translated METAR for KOWD (0948 UTC 01 November 2014)
found at http://aviationweather.gov/adds/metars/
 
METAR text: KOWD 010853Z AUTO 36010KT 10SM OVC090 07/02 A2989 RMK AO2 SLP120 T00670017 58008
Conditions at: KOWD (NORWOOD , MA, US) observed 0853 UTC 01 November 2014
Temperature: 6.7°C (44°F)
Dewpoint: 1.7°C (35°F) [RH = 70%]
Pressure (altimeter): 29.89 inches Hg (1012.3 mb)
[Sea-level pressure: 1012.0 mb]
Winds: from the N (360 degrees) at 12 MPH (10 knots; 5.2 m/s)
Visibility: 10 or more miles (16+ km)
Ceiling: 9000 feet AGL
Clouds: overcast cloud deck at 9000 feet AGL
Weather: automated observation with no human augmentation;
there may or may not be significant weather present at this time
Translated TAF for KOWD

There is no translated TAF available for this airport

Find All Airport Services Find A Hotel Find A Rental Car Find A Golf Course Find A Restaurant $100 Hamburger



FBO's on the Field
FBO Company Facility Photos Services Transportation Aviation Fuel Prices: Prices include tax
Catering Weather Repair Courtesy Rental Type 100LL JetA JetA+ MOGAS 8087
 
FlightLevel Aviation

Currently rated 2.7 by 2 people
FS:Shell
Last Updated: Oct-27
Login to update fuel prices
SS:
Contact FlightLevel AviationMore FBO Information
 
Add another FBO Facility Photos Catering Weather Repair Courtesy Rental Type 100LL JetA JetA+ MOGAS 8087
Services Transportation Aviation Fuel Prices: Prices include tax


model-print
model-print
model-print
model-print